Time;durP1;ratioP1;P1;durP2;ratioP2;P2;SDS_P1;SDS_P2;PMS_P1;PMS_P2;Temp;Humidity;BMP_temperature;BMP_pressure;BME280_temperature;BME280_humidity;BME280_pressure;Samples;Min_cycle;Max_cycle;Signal;HPM_P1;HPM_P2
2021/10/19 00:01:57;;;;;;;15.88;4.10;;;;;;;;;;5075376;28;20059;-63
2021/10/19 00:04:23;;;;;;;15.75;3.83;;;;;;;;;;5075505;28;20136;-63
2021/10/19 00:06:50;;;;;;;14.52;3.58;;;;;;;;;;5074182;28;20021;-63
2021/10/19 00:09:15;;;;;;;5.85;3.83;;;;;;;;;;5074970;28;20064;-63
2021/10/19 00:11:41;;;;;;;10.57;3.10;;;;;;;;;;5075386;28;20101;-63
2021/10/19 00:14:07;;;;;;;7.18;3.60;;;;;;;;;;5075240;28;20036;-66
2021/10/19 00:16:34;;;;;;;11.13;3.38;;;;;;;;;;5075313;28;20021;-63
2021/10/19 00:19:00;;;;;;;12.80;3.55;;;;;;;;;;5075185;28;20520;-64
2021/10/19 00:21:26;;;;;;;11.15;3.58;;;;;;;;;;5075205;28;20483;-64
2021/10/19 00:23:52;;;;;;;9.13;3.67;;;;;;;;;;5073833;28;20028;-63
2021/10/19 00:26:18;;;;;;;8.15;3.55;;;;;;;;;;5075074;28;20078;-63
2021/10/19 00:28:44;;;;;;;7.15;3.80;;;;;;;;;;5074708;28;20460;-64
2021/10/19 00:31:10;;;;;;;10.23;3.45;;;;;;;;;;5075042;28;20035;-63
2021/10/19 00:33:36;;;;;;;7.30;3.90;;;;;;;;;;5074865;28;20028;-64
2021/10/19 00:36:02;;;;;;;6.43;3.70;;;;;;;;;;5074686;28;20059;-64
2021/10/19 00:38:28;;;;;;;17.65;3.83;;;;;;;;;;5075177;28;20043;-63
2021/10/19 00:40:54;;;;;;;8.70;3.65;;;;;;;;;;5052795;28;20070;-64
2021/10/19 00:43:20;;;;;;;6.80;3.33;;;;;;;;;;5054742;28;20036;-63
2021/10/19 00:45:47;;;;;;;13.40;3.80;;;;;;;;;;5054662;28;20025;-63
2021/10/19 00:48:16;;;;;;;10.30;3.95;;;;;;;;;;5054574;28;20021;-64
2021/10/19 00:50:42;;;;;;;16.25;3.70;;;;;;;;;;5054358;28;20024;-63
2021/10/19 00:53:08;;;;;;;9.73;4.07;;;;;;;;;;5054501;28;20098;-63
2021/10/19 00:55:34;;;;;;;8.95;3.75;;;;;;;;;;5054269;28;20027;-64
2021/10/19 00:58:01;;;;;;;8.52;3.35;;;;;;;;;;5062889;28;20032;-63
2021/10/19 01:00:28;;;;;;;13.30;3.90;;;;;;;;;;5074326;28;20044;-63
2021/10/19 01:02:54;;;;;;;6.80;3.30;;;;;;;;;;5074469;28;20035;-65
2021/10/19 01:05:20;;;;;;;10.15;3.47;;;;;;;;;;5074282;28;20032;-63
2021/10/19 01:07:47;;;;;;;7.10;3.65;;;;;;;;;;5073073;28;20020;-64
2021/10/19 01:10:13;;;;;;;9.35;3.58;;;;;;;;;;5074100;28;20028;-64
2021/10/19 01:12:41;;;;;;;14.27;3.88;;;;;;;;;;5074002;28;20040;-64
2021/10/19 01:15:09;;;;;;;10.57;3.50;;;;;;;;;;5074083;28;20475;-63
2021/10/19 01:17:40;;;;;;;10.77;4.03;;;;;;;;;;5074194;28;20117;-64
2021/10/19 01:20:14;;;;;;;9.38;3.78;;;;;;;;;;5074187;28;20021;-65
2021/10/19 01:22:40;;;;;;;7.93;4.20;;;;;;;;;;5073502;28;20036;-64
2021/10/19 01:25:06;;;;;;;12.52;3.75;;;;;;;;;;5072729;28;20118;-63
2021/10/19 01:27:32;;;;;;;8.93;3.25;;;;;;;;;;5074122;28;20025;-63
2021/10/19 01:29:58;;;;;;;7.95;3.85;;;;;;;;;;5073936;28;20039;-64
2021/10/19 01:32:24;;;;;;;7.50;3.10;;;;;;;;;;5073744;28;20103;-63
2021/10/19 01:34:50;;;;;;;14.23;3.20;;;;;;;;;;5073550;28;20104;-63
2021/10/19 01:37:16;;;;;;;12.80;3.53;;;;;;;;;;5073893;28;20472;-66
2021/10/19 01:39:42;;;;;;;7.32;3.35;;;;;;;;;;5073545;28;20350;-64
2021/10/19 01:42:08;;;;;;;7.47;3.38;;;;;;;;;;5054821;28;20115;-65
2021/10/19 01:44:34;;;;;;;10.23;3.78;;;;;;;;;;5073401;28;20044;-64
2021/10/19 01:47:00;;;;;;;18.75;3.40;;;;;;;;;;5073458;28;20017;-62
2021/10/19 01:49:26;;;;;;;15.30;3.90;;;;;;;;;;5073564;28;20369;-63
2021/10/19 01:51:52;;;;;;;6.82;3.40;;;;;;;;;;5073441;28;20052;-62
2021/10/19 01:54:18;;;;;;;5.80;3.42;;;;;;;;;;5073238;28;20361;-64
2021/10/19 01:56:44;;;;;;;14.40;3.42;;;;;;;;;;5055149;28;20429;-63
2021/10/19 01:59:10;;;;;;;10.10;3.33;;;;;;;;;;5071975;28;20115;-63
2021/10/19 02:01:38;;;;;;;6.32;3.28;;;;;;;;;;5073031;28;20047;-63
2021/10/19 02:04:04;;;;;;;5.25;3.10;;;;;;;;;;5072897;28;20040;-64
2021/10/19 02:06:30;;;;;;;11.10;3.50;;;;;;;;;;5073051;28;20441;-63
2021/10/19 02:08:56;;;;;;;11.80;3.40;;;;;;;;;;5073339;28;20056;-63
2021/10/19 02:11:22;;;;;;;15.10;3.75;;;;;;;;;;5073042;28;20093;-64
2021/10/19 02:13:48;;;;;;;6.75;3.05;;;;;;;;;;5072132;28;20468;-65
2021/10/19 02:16:13;;;;;;;4.60;3.60;;;;;;;;;;5073280;28;20012;-63
2021/10/19 02:18:39;;;;;;;8.23;3.88;;;;;;;;;;5072965;28;20032;-64
2021/10/19 02:21:05;;;;;;;5.00;3.33;;;;;;;;;;5073072;28;20024;-63
2021/10/19 02:23:31;;;;;;;6.07;3.63;;;;;;;;;;5054932;28;20042;-63
2021/10/19 02:25:57;;;;;;;4.45;3.03;;;;;;;;;;5072883;28;20467;-63
2021/10/19 02:28:23;;;;;;;9.00;3.55;;;;;;;;;;5072807;28;20020;-66
2021/10/19 02:30:49;;;;;;;6.53;3.33;;;;;;;;;;5071655;28;20095;-67
2021/10/19 02:33:16;;;;;;;7.38;3.42;;;;;;;;;;5033820;28;20036;-64
2021/10/19 02:35:42;;;;;;;6.65;3.47;;;;;;;;;;5052617;28;20460;-67
2021/10/19 02:38:08;;;;;;;13.00;3.58;;;;;;;;;;5052647;28;20037;-66
2021/10/19 02:40:34;;;;;;;7.15;3.53;;;;;;;;;;5052896;28;20170;-65
2021/10/19 02:43:00;;;;;;;9.50;3.95;;;;;;;;;;5052601;28;20028;-63
2021/10/19 02:45:26;;;;;;;36.45;4.03;;;;;;;;;;5052980;28;20415;-62
2021/10/19 02:47:52;;;;;;;60.55;4.78;;;;;;;;;;5059037;28;20483;-68
2021/10/19 02:50:18;;;;;;;27.23;3.92;;;;;;;;;;5072835;28;20024;-66
2021/10/19 02:52:44;;;;;;;36.97;4.32;;;;;;;;;;5072705;28;20579;-66
2021/10/19 02:55:12;;;;;;;36.67;4.82;;;;;;;;;;5073169;28;20025;-66
2021/10/19 02:57:39;;;;;;;34.42;4.38;;;;;;;;;;5072779;28;20029;-64
2021/10/19 03:00:06;;;;;;;28.83;3.80;;;;;;;;;;5072893;28;20021;-63
2021/10/19 03:02:32;;;;;;;16.55;3.92;;;;;;;;;;5072395;28;20127;-63
2021/10/19 03:04:58;;;;;;;42.92;4.40;;;;;;;;;;5071847;28;20071;-63
2021/10/19 03:07:23;;;;;;;23.52;4.70;;;;;;;;;;5072404;28;20059;-64
2021/10/19 03:09:49;;;;;;;28.35;3.83;;;;;;;;;;5072593;28;20033;-63
2021/10/19 03:12:15;;;;;;;23.10;4.05;;;;;;;;;;5072496;28;20023;-63
2021/10/19 03:14:41;;;;;;;17.00;3.97;;;;;;;;;;5071941;28;20020;-62
2021/10/19 03:17:07;;;;;;;26.98;3.92;;;;;;;;;;5072098;28;20137;-63
2021/10/19 03:19:33;;;;;;;14.65;3.65;;;;;;;;;;5072051;28;20029;-64
2021/10/19 03:21:59;;;;;;;18.35;3.80;;;;;;;;;;5068267;28;20354;-64
2021/10/19 03:24:25;;;;;;;14.38;3.33;;;;;;;;;;5052142;28;20043;-63
2021/10/19 03:26:51;;;;;;;12.88;3.50;;;;;;;;;;5052344;28;20385;-63
2021/10/19 03:29:19;;;;;;;13.43;4.05;;;;;;;;;;5052364;28;20520;-62
2021/10/19 03:31:45;;;;;;;14.52;3.70;;;;;;;;;;5052414;28;20082;-64
2021/10/19 03:34:11;;;;;;;7.55;3.60;;;;;;;;;;5065144;28;20025;-64
2021/10/19 03:36:37;;;;;;;7.47;3.75;;;;;;;;;;5071689;28;20016;-63
2021/10/19 03:39:03;;;;;;;9.57;3.42;;;;;;;;;;5053512;28;20074;-63
2021/10/19 03:41:29;;;;;;;9.68;3.72;;;;;;;;;;5072069;28;20533;-65
2021/10/19 03:43:55;;;;;;;15.68;3.30;;;;;;;;;;5072116;28;20045;-63
2021/10/19 03:46:26;;;;;;;13.02;3.33;;;;;;;;;;5075783;28;20472;-67
2021/10/19 03:48:52;;;;;;;9.60;3.90;;;;;;;;;;5075814;28;20025;-62
2021/10/19 03:51:17;;;;;;;6.35;3.20;;;;;;;;;;5075862;28;20115;-64
2021/10/19 03:53:43;;;;;;;8.05;3.22;;;;;;;;;;5075614;28;20024;-63
2021/10/19 03:56:12;;;;;;;14.75;3.30;;;;;;;;;;5061318;28;20025;-62
2021/10/19 03:58:38;;;;;;;6.50;3.10;;;;;;;;;;5075077;28;20396;-64
2021/10/19 04:01:04;;;;;;;7.60;3.50;;;;;;;;;;5074871;28;20406;-63
2021/10/19 04:03:30;;;;;;;13.32;3.63;;;;;;;;;;5075037;28;20103;-62
2021/10/19 04:05:55;;;;;;;6.35;3.28;;;;;;;;;;5075139;28;20418;-63
2021/10/19 04:08:21;;;;;;;13.07;3.60;;;;;;;;;;5075215;28;20068;-63
2021/10/19 04:10:47;;;;;;;13.48;3.15;;;;;;;;;;5073829;28;20087;-62
2021/10/19 04:13:14;;;;;;;10.15;2.88;;;;;;;;;;5075098;28;20170;-63
2021/10/19 04:15:40;;;;;;;13.88;3.17;;;;;;;;;;5057266;28;20078;-63
2021/10/19 04:18:06;;;;;;;14.32;3.50;;;;;;;;;;5075237;28;20032;-63
2021/10/19 04:20:32;;;;;;;16.90;3.00;;;;;;;;;;5075248;28;20075;-63
2021/10/19 04:22:57;;;;;;;9.77;3.13;;;;;;;;;;5075178;28;20515;-63
2021/10/19 04:25:23;;;;;;;6.57;3.50;;;;;;;;;;5075050;28;20033;-66
2021/10/19 04:27:49;;;;;;;9.05;3.15;;;;;;;;;;5066402;28;20079;-63
2021/10/19 04:30:15;;;;;;;7.72;3.50;;;;;;;;;;5054790;28;20100;-62
2021/10/19 04:32:41;;;;;;;7.88;3.10;;;;;;;;;;5054891;28;20033;-63
2021/10/19 04:35:08;;;;;;;9.18;3.50;;;;;;;;;;5054915;28;20063;-64
2021/10/19 04:37:35;;;;;;;6.53;2.90;;;;;;;;;;5054742;28;20543;-64
2021/10/19 04:40:00;;;;;;;3.13;2.83;;;;;;;;;;5054981;28;20357;-62
2021/10/19 04:42:29;;;;;;;11.65;3.50;;;;;;;;;;5054803;28;20460;-66
2021/10/19 04:44:55;;;;;;;6.47;2.80;;;;;;;;;;5071001;28;20040;-63
2021/10/19 04:47:22;;;;;;;4.47;3.10;;;;;;;;;;5074961;28;20074;-63
2021/10/19 04:49:48;;;;;;;4.25;2.67;;;;;;;;;;5074947;28;20037;-65
2021/10/19 04:52:14;;;;;;;14.65;3.35;;;;;;;;;;5074800;28;20529;-63
2021/10/19 04:54:40;;;;;;;6.43;3.00;;;;;;;;;;5074563;28;20120;-62
2021/10/19 04:57:06;;;;;;;5.50;2.65;;;;;;;;;;5073547;28;20044;-63
2021/10/19 04:59:32;;;;;;;4.60;2.63;;;;;;;;;;5074273;28;20025;-63
2021/10/19 05:01:58;;;;;;;3.70;3.00;;;;;;;;;;5073254;28;20052;-62
2021/10/19 05:04:23;;;;;;;8.25;3.25;;;;;;;;;;5074282;28;20039;-62
2021/10/19 05:06:49;;;;;;;4.55;2.60;;;;;;;;;;5074557;28;20453;-63
2021/10/19 05:09:15;;;;;;;8.07;3.00;;;;;;;;;;5074234;28;20064;-62
2021/10/19 05:11:41;;;;;;;5.80;3.15;;;;;;;;;;5074368;28;20361;-63
2021/10/19 05:14:07;;;;;;;5.10;2.80;;;;;;;;;;5074371;28;20070;-63
2021/10/19 05:16:33;;;;;;;3.50;2.88;;;;;;;;;;5073035;28;20119;-64
2021/10/19 05:18:59;;;;;;;3.63;2.50;;;;;;;;;;5074181;28;20479;-62
2021/10/19 05:21:25;;;;;;;3.05;2.30;;;;;;;;;;5074113;28;20025;-67
2021/10/19 05:23:51;;;;;;;5.28;3.33;;;;;;;;;;5073857;28;20036;-62
2021/10/19 05:26:17;;;;;;;7.85;3.17;;;;;;;;;;5073820;28;20021;-63
2021/10/19 05:28:43;;;;;;;5.57;2.42;;;;;;;;;;5073657;28;20468;-62
2021/10/19 05:31:09;;;;;;;4.47;2.78;;;;;;;;;;5073735;28;20042;-65
2021/10/19 05:33:35;;;;;;;7.07;3.00;;;;;;;;;;5072775;28;20028;-62
2021/10/19 05:36:01;;;;;;;6.75;2.67;;;;;;;;;;5073741;28;20025;-63
2021/10/19 05:38:28;;;;;;;5.82;2.88;;;;;;;;;;5073799;28;20113;-64
2021/10/19 05:40:53;;;;;;;4.43;2.70;;;;;;;;;;5073645;28;20421;-62
2021/10/19 05:43:19;;;;;;;3.35;2.53;;;;;;;;;;5073477;28;20102;-62
2021/10/19 05:45:45;;;;;;;3.92;2.72;;;;;;;;;;5073632;28;20399;-62
2021/10/19 05:48:11;;;;;;;2.78;2.50;;;;;;;;;;5073359;28;20024;-63
2021/10/19 05:50:38;;;;;;;4.50;2.78;;;;;;;;;;5071304;28;20024;-62
2021/10/19 05:53:04;;;;;;;3.92;2.58;;;;;;;;;;5053547;28;20372;-62
2021/10/19 05:55:30;;;;;;;3.30;2.70;;;;;;;;;;5053738;28;20464;-63
2021/10/19 05:57:56;;;;;;;5.35;3.30;;;;;;;;;;5053379;28;20024;-63
2021/10/19 06:00:22;;;;;;;3.42;2.33;;;;;;;;;;5053082;28;20044;-63
2021/10/19 06:02:48;;;;;;;3.38;2.40;;;;;;;;;;5053208;28;20029;-62
2021/10/19 06:05:14;;;;;;;4.03;2.53;;;;;;;;;;5053208;28;20052;-64
2021/10/19 06:07:40;;;;;;;3.42;2.42;;;;;;;;;;5053137;28;20464;-62
2021/10/19 06:10:06;;;;;;;15.57;2.58;;;;;;;;;;5070016;28;20041;-63
2021/10/19 06:12:32;;;;;;;4.18;3.10;;;;;;;;;;5073456;28;20024;-64
2021/10/19 06:14:58;;;;;;;7.47;2.90;;;;;;;;;;5073246;28;20089;-62
2021/10/19 06:17:24;;;;;;;10.65;3.15;;;;;;;;;;5073242;28;20021;-70
2021/10/19 06:19:50;;;;;;;5.35;3.00;;;;;;;;;;5073929;28;20375;-71
2021/10/19 06:22:16;;;;;;;5.85;3.53;;;;;;;;;;5073501;28;20016;-68
2021/10/19 06:24:42;;;;;;;14.43;3.13;;;;;;;;;;5073712;28;20042;-70
2021/10/19 06:27:08;;;;;;;10.80;3.47;;;;;;;;;;5072287;28;20039;-63
2021/10/19 06:29:34;;;;;;;11.55;3.60;;;;;;;;;;5072872;28;20419;-63
2021/10/19 06:32:00;;;;;;;7.32;3.20;;;;;;;;;;5072761;28;20467;-63
2021/10/19 06:34:26;;;;;;;6.53;3.72;;;;;;;;;;5054748;28;20035;-63
2021/10/19 06:36:52;;;;;;;8.20;3.47;;;;;;;;;;5072714;28;20036;-63
2021/10/19 06:39:18;;;;;;;6.03;3.30;;;;;;;;;;5072670;28;20064;-63
2021/10/19 06:41:44;;;;;;;34.53;4.13;;;;;;;;;;5071550;28;20472;-64
2021/10/19 06:44:10;;;;;;;18.50;3.78;;;;;;;;;;5072063;28;20036;-72
2021/10/19 06:46:36;;;;;;;10.52;3.05;;;;;;;;;;5071887;28;20085;-63
2021/10/19 06:49:02;;;;;;;10.95;4.22;;;;;;;;;;5071503;28;20024;-63
2021/10/19 06:51:28;;;;;;;8.70;3.05;;;;;;;;;;5071353;28;20484;-65
2021/10/19 06:53:54;;;;;;;9.40;3.40;;;;;;;;;;5071378;28;20020;-68
2021/10/19 06:56:20;;;;;;;6.70;3.10;;;;;;;;;;5071690;28;20029;-63
2021/10/19 06:58:46;;;;;;;6.00;3.65;;;;;;;;;;5070750;28;20029;-67
2021/10/19 07:01:12;;;;;;;5.25;3.58;;;;;;;;;;5071493;28;20056;-64
2021/10/19 07:03:39;;;;;;;8.80;3.05;;;;;;;;;;5071212;28;20395;-64
2021/10/19 07:06:06;;;;;;;7.13;3.20;;;;;;;;;;5071115;28;20040;-63
2021/10/19 07:08:36;;;;;;;5.50;3.15;;;;;;;;;;5071201;28;20027;-63
2021/10/19 07:11:02;;;;;;;4.80;3.47;;;;;;;;;;5071448;28;20016;-63
2021/10/19 07:13:28;;;;;;;4.15;3.28;;;;;;;;;;5070246;28;20024;-63
2021/10/19 07:15:54;;;;;;;9.25;3.63;;;;;;;;;;5071128;28;20086;-63
2021/10/19 07:18:24;;;;;;;14.82;3.10;;;;;;;;;;5071468;28;20032;-63
2021/10/19 07:20:50;;;;;;;6.35;3.38;;;;;;;;;;5074623;28;20480;-63
2021/10/19 07:23:17;;;;;;;5.38;3.45;;;;;;;;;;5075066;28;20068;-62
2021/10/19 07:25:43;;;;;;;7.88;3.50;;;;;;;;;;5075975;28;20048;-63
2021/10/19 07:28:09;;;;;;;22.48;3.60;;;;;;;;;;5076558;28;20108;-63
2021/10/19 07:30:35;;;;;;;5.82;3.40;;;;;;;;;;5074060;28;20070;-62
2021/10/19 07:33:01;;;;;;;9.57;3.70;;;;;;;;;;5073442;28;20029;-63
2021/10/19 07:35:27;;;;;;;7.55;3.67;;;;;;;;;;5074041;28;20423;-63
2021/10/19 07:37:53;;;;;;;18.33;3.80;;;;;;;;;;5074436;28;20020;-65
2021/10/19 07:40:20;;;;;;;20.13;3.90;;;;;;;;;;5056643;28;20391;-64
2021/10/19 07:42:47;;;;;;;49.33;4.57;;;;;;;;;;5074585;28;20532;-63
2021/10/19 07:45:14;;;;;;;22.55;4.10;;;;;;;;;;5074366;28;20462;-64
2021/10/19 07:47:40;;;;;;;19.13;3.53;;;;;;;;;;5070735;28;20020;-63
2021/10/19 07:50:07;;;;;;;25.58;4.63;;;;;;;;;;5074557;28;20020;-63
2021/10/19 07:52:33;;;;;;;23.08;3.95;;;;;;;;;;5074713;28;20463;-63
2021/10/19 07:54:59;;;;;;;14.73;3.90;;;;;;;;;;5074063;28;20032;-63
2021/10/19 07:57:25;;;;;;;8.40;3.47;;;;;;;;;;5074148;28;20090;-64
2021/10/19 07:59:51;;;;;;;9.63;3.80;;;;;;;;;;5074043;28;20036;-63
2021/10/19 08:02:17;;;;;;;5.95;3.20;;;;;;;;;;5056137;28;20102;-63
2021/10/19 08:04:43;;;;;;;10.23;3.70;;;;;;;;;;5073598;28;20062;-63
2021/10/19 08:07:09;;;;;;;21.70;3.85;;;;;;;;;;5056370;28;20024;-63
2021/10/19 08:09:35;;;;;;;20.83;3.70;;;;;;;;;;5074617;28;20499;-64
2021/10/19 08:12:01;;;;;;;5.05;3.28;;;;;;;;;;5074271;28;20067;-65
2021/10/19 08:14:27;;;;;;;8.73;3.28;;;;;;;;;;5056337;28;20487;-63
2021/10/19 08:16:54;;;;;;;10.90;3.60;;;;;;;;;;5073808;28;20065;-63
2021/10/19 08:19:20;;;;;;;22.38;3.70;;;;;;;;;;5071275;28;20032;-64
2021/10/19 08:21:46;;;;;;;7.00;3.65;;;;;;;;;;5073378;28;20029;-62
2021/10/19 08:24:12;;;;;;;10.63;3.42;;;;;;;;;;5074406;28;20036;-62
2021/10/19 08:26:38;;;;;;;8.82;3.50;;;;;;;;;;5073982;28;20547;-62
2021/10/19 08:29:04;;;;;;;8.13;3.22;;;;;;;;;;5074149;28;20044;-63
2021/10/19 08:31:31;;;;;;;9.55;3.42;;;;;;;;;;5074221;28;20081;-62
2021/10/19 08:33:57;;;;;;;6.93;3.08;;;;;;;;;;5073983;28;20031;-62
2021/10/19 08:36:23;;;;;;;7.15;3.55;;;;;;;;;;5073089;28;20394;-63
2021/10/19 08:38:50;;;;;;;6.22;2.95;;;;;;;;;;5073280;28;20391;-66
2021/10/19 08:41:17;;;;;;;7.50;3.22;;;;;;;;;;5073855;28;20468;-63
2021/10/19 08:43:43;;;;;;;8.30;3.83;;;;;;;;;;5073975;28;20027;-65
2021/10/19 08:46:10;;;;;;;17.13;3.28;;;;;;;;;;5073669;28;20028;-62
2021/10/19 08:48:36;;;;;;;9.52;3.38;;;;;;;;;;5073701;28;20025;-63
2021/10/19 08:51:02;;;;;;;9.15;3.80;;;;;;;;;;5073256;28;20025;-64
2021/10/19 08:53:28;;;;;;;10.18;3.08;;;;;;;;;;5072786;28;20037;-63
2021/10/19 08:55:55;;;;;;;5.72;3.13;;;;;;;;;;5073276;28;20372;-62
2021/10/19 08:58:21;;;;;;;3.92;3.05;;;;;;;;;;5073717;28;20025;-62
2021/10/19 09:00:47;;;;;;;11.40;3.35;;;;;;;;;;5073094;28;20101;-65
2021/10/19 09:03:13;;;;;;;9.82;3.15;;;;;;;;;;5073190;28;20641;-66
2021/10/19 09:05:45;;;;;;;8.07;3.00;;;;;;;;;;5073207;28;20484;-62
2021/10/19 09:08:12;;;;;;;;;;;;;;;;;;5074047;28;20021;-64
2021/10/19 09:10:39;;;;;;;5.95;2.95;;;;;;;;;;5072365;28;19908;-63
2021/10/19 09:13:06;;;;;;;8.88;3.10;;;;;;;;;;5073224;28;20027;-62
2021/10/19 09:15:37;;;;;;;6.88;3.20;;;;;;;;;;5073334;28;20040;-63
2021/10/19 09:18:17;;;;;;;13.15;3.15;;;;;;;;;;5070580;28;20017;-62
2021/10/19 09:20:46;;;;;;;7.00;3.15;;;;;;;;;;5073018;28;20035;-63
2021/10/19 09:23:13;;;;;;;10.20;3.17;;;;;;;;;;5072571;28;20381;-63
2021/10/19 09:25:40;;;;;;;6.65;3.00;;;;;;;;;;5072778;28;20016;-63
2021/10/19 09:28:10;;;;;;;5.43;3.22;;;;;;;;;;5072317;28;20028;-62
2021/10/19 09:30:37;;;;;;;7.22;3.53;;;;;;;;;;5072745;28;20022;-65
2021/10/19 09:33:04;;;;;;;4.38;2.63;;;;;;;;;;5072538;28;20013;-62
2021/10/19 09:35:30;;;;;;;4.82;3.10;;;;;;;;;;5071108;28;20024;-63
2021/10/19 09:38:06;;;;;;;5.05;2.80;;;;;;;;;;5072624;28;20028;-62
2021/10/19 09:40:33;;;;;;;13.95;2.92;;;;;;;;;;5072625;28;20383;-65
2021/10/19 09:43:00;;;;;;;3.33;3.00;;;;;;;;;;5070819;28;20119;-63
2021/10/19 09:45:27;;;;;;;5.45;2.90;;;;;;;;;;5072571;28;20024;-63
2021/10/19 09:47:55;;;;;;;7.88;2.97;;;;;;;;;;5072533;28;20008;-62
2021/10/19 09:50:21;;;;;;;4.72;2.92;;;;;;;;;;5072824;28;20554;-62
2021/10/19 09:52:47;;;;;;;4.43;2.75;;;;;;;;;;5072169;28;20091;-62
2021/10/19 09:55:14;;;;;;;11.68;3.35;;;;;;;;;;5072352;28;20073;-62
2021/10/19 09:57:42;;;;;;;6.55;3.00;;;;;;;;;;5071730;28;20425;-62
2021/10/19 10:00:08;;;;;;;6.55;2.97;;;;;;;;;;5069984;28;20031;-62
2021/10/19 10:02:36;;;;;;;8.00;3.10;;;;;;;;;;5071164;28;20131;-62
2021/10/19 10:05:03;;;;;;;9.20;3.70;;;;;;;;;;5071919;28;20169;-62
2021/10/19 10:07:30;;;;;;;8.85;3.05;;;;;;;;;;5071652;28;20025;-64
2021/10/19 10:09:56;;;;;;;7.70;3.17;;;;;;;;;;5072175;28;20028;-61
2021/10/19 10:12:29;;;;;;;4.28;3.28;;;;;;;;;;5071711;28;20495;-66
2021/10/19 10:14:55;;;;;;;4.75;3.20;;;;;;;;;;5072458;28;20017;-65
2021/10/19 10:17:21;;;;;;;7.55;3.33;;;;;;;;;;5071293;28;20032;-66
2021/10/19 10:19:47;;;;;;;13.15;3.75;;;;;;;;;;5072333;28;20013;-63
2021/10/19 10:22:17;;;;;;;10.95;3.38;;;;;;;;;;5072349;28;20471;-63
2021/10/19 10:24:43;;;;;;;3.33;2.80;;;;;;;;;;5072167;28;20064;-62
2021/10/19 10:27:14;;;;;;;11.95;3.20;;;;;;;;;;5072110;28;20494;-67
2021/10/19 10:29:43;;;;;;;15.85;3.17;;;;;;;;;;5071908;28;20488;-65
2021/10/19 10:32:28;;;;;;;8.48;3.15;;;;;;;;;;5070865;28;20019;-61
2021/10/19 10:35:00;;;;;;;6.60;2.75;;;;;;;;;;5072150;28;20012;-65
2021/10/19 10:37:35;;;;;;;7.97;3.60;;;;;;;;;;5055736;28;20469;-63
2021/10/19 10:40:01;;;;;;;5.65;2.55;;;;;;;;;;5071829;28;20016;-61
2021/10/19 10:42:34;;;;;;;9.25;2.97;;;;;;;;;;5071892;28;20348;-61
2021/10/19 10:45:00;;;;;;;4.70;3.35;;;;;;;;;;5071651;28;20051;-62
2021/10/19 10:47:26;;;;;;;5.15;2.92;;;;;;;;;;5072062;28;20508;-61
2021/10/19 10:49:53;;;;;;;8.68;3.15;;;;;;;;;;5071895;28;20024;-62
2021/10/19 10:52:19;;;;;;;8.43;2.83;;;;;;;;;;5071011;28;20028;-64
2021/10/19 10:54:52;;;;;;;3.53;2.60;;;;;;;;;;5072622;28;20456;-64
2021/10/19 10:57:18;;;;;;;13.07;2.85;;;;;;;;;;5075904;28;20533;-66
2021/10/19 10:59:51;;;;;;;9.85;3.08;;;;;;;;;;5075836;28;20480;-65
2021/10/19 11:02:17;;;;;;;4.57;3.00;;;;;;;;;;5075480;28;20036;-62
2021/10/19 11:04:47;;;;;;;5.88;3.22;;;;;;;;;;5075646;28;20430;-65
2021/10/19 11:07:14;;;;;;;11.07;3.00;;;;;;;;;;5073339;28;20353;-63
2021/10/19 11:09:40;;;;;;;5.80;2.70;;;;;;;;;;5075729;28;20448;-66
2021/10/19 11:12:06;;;;;;;9.35;2.85;;;;;;;;;;5075739;28;20031;-62
2021/10/19 11:14:32;;;;;;;8.18;3.22;;;;;;;;;;5058145;28;20426;-64
2021/10/19 11:16:58;;;;;;;8.57;2.92;;;;;;;;;;5075775;28;20452;-66
2021/10/19 11:19:29;;;;;;;12.70;3.25;;;;;;;;;;5075525;28;20021;-64
2021/10/19 11:22:02;;;;;;;9.82;3.00;;;;;;;;;;5057371;28;20031;-66
2021/10/19 11:24:29;;;;;;;7.18;3.15;;;;;;;;;;5073351;28;20128;-63
2021/10/19 11:26:55;;;;;;;23.45;3.15;;;;;;;;;;5075239;28;20025;-64
2021/10/19 11:29:22;;;;;;;11.25;2.80;;;;;;;;;;5075618;28;20055;-67
2021/10/19 11:31:48;;;;;;;25.33;3.92;;;;;;;;;;5057854;28;20021;-72
2021/10/19 11:34:15;;;;;;;14.18;3.50;;;;;;;;;;5075319;28;20039;-68
2021/10/19 11:36:41;;;;;;;14.93;3.67;;;;;;;;;;5075113;28;20660;-69
2021/10/19 11:39:12;;;;;;;9.93;3.78;;;;;;;;;;5072154;28;20031;-67
2021/10/19 11:41:38;;;;;;;12.75;3.72;;;;;;;;;;5075004;28;20383;-67
2021/10/19 11:44:06;;;;;;;21.38;3.97;;;;;;;;;;5074816;28;20028;-65
2021/10/19 11:46:33;;;;;;;20.85;4.28;;;;;;;;;;5074983;28;20048;-70
2021/10/19 11:49:04;;;;;;;11.07;3.97;;;;;;;;;;5074987;28;20388;-70
2021/10/19 11:51:30;;;;;;;8.23;3.90;;;;;;;;;;5075320;28;20021;-65
2021/10/19 11:53:57;;;;;;;10.65;3.78;;;;;;;;;;5073868;28;20009;-69
2021/10/19 11:56:23;;;;;;;11.55;3.90;;;;;;;;;;5057061;28;20113;-64
2021/10/19 11:58:53;;;;;;;9.55;3.90;;;;;;;;;;5074693;28;20025;-64
2021/10/19 12:01:20;;;;;;;9.05;3.95;;;;;;;;;;5069160;28;20416;-71
2021/10/19 12:03:59;;;;;;;12.00;3.53;;;;;;;;;;5074258;28;20028;-70
2021/10/19 12:06:26;;;;;;;11.63;3.72;;;;;;;;;;5073541;28;20522;-70
2021/10/19 12:08:52;;;;;;;6.15;4.03;;;;;;;;;;5074760;28;20020;-68
2021/10/19 12:11:21;;;;;;;15.18;4.28;;;;;;;;;;5074470;28;21400;-70
2021/10/19 12:13:55;;;;;;;7.53;4.03;;;;;;;;;;5074553;28;20060;-69
2021/10/19 12:16:32;;;;;;;6.93;3.25;;;;;;;;;;5070083;28;20170;-67
2021/10/19 12:18:59;;;;;;;9.13;4.50;;;;;;;;;;5074566;28;20100;-69
2021/10/19 12:21:26;;;;;;;7.22;4.25;;;;;;;;;;5074793;28;20024;-65
2021/10/19 12:23:53;;;;;;;15.20;5.38;;;;;;;;;;5074432;28;20039;-70
2021/10/19 12:26:23;;;;;;;7.13;4.60;;;;;;;;;;5075022;28;20029;-67
2021/10/19 12:28:50;;;;;;;11.88;4.45;;;;;;;;;;5073912;28;20056;-69
2021/10/19 12:31:17;;;;;;;10.68;5.43;;;;;;;;;;5074909;28;20052;-68
2021/10/19 12:33:43;;;;;;;11.23;4.80;;;;;;;;;;5074587;28;20029;-67
2021/10/19 12:36:09;;;;;;;8.93;4.88;;;;;;;;;;5074664;28;20020;-70
2021/10/19 12:38:35;;;;;;;10.18;5.53;;;;;;;;;;5074152;28;20492;-67
2021/10/19 12:41:20;;;;;;;14.57;5.40;;;;;;;;;;5074450;28;20033;-70
2021/10/19 12:43:48;;;;;;;10.73;5.40;;;;;;;;;;5074497;28;20016;-69
2021/10/19 12:46:15;;;;;;;14.13;6.10;;;;;;;;;;5073453;28;20029;-72
2021/10/19 12:48:41;;;;;;;7.97;5.65;;;;;;;;;;5073096;28;20025;-65
2021/10/19 12:51:15;;;;;;;10.90;5.90;;;;;;;;;;5072673;28;20031;-67
2021/10/19 12:53:45;;;;;;;10.93;5.90;;;;;;;;;;5074178;28;20446;-72
2021/10/19 12:56:11;;;;;;;9.23;5.88;;;;;;;;;;5074665;28;20016;-71
2021/10/19 12:58:37;;;;;;;16.35;6.30;;;;;;;;;;5075145;28;20457;-70
2021/10/19 13:01:04;;;;;;;15.80;6.57;;;;;;;;;;5074398;28;20029;-72
2021/10/19 13:03:30;;;;;;;14.43;7.38;;;;;;;;;;5074750;28;20066;-64
2021/10/19 13:05:56;;;;;;;12.95;7.50;;;;;;;;;;5074446;28;20435;-65
2021/10/19 13:08:23;;;;;;;14.60;7.63;;;;;;;;;;5074571;28;20043;-67
2021/10/19 13:10:49;;;;;;;13.57;7.68;;;;;;;;;;5074356;28;20024;-71
2021/10/19 13:13:15;;;;;;;15.77;7.80;;;;;;;;;;5074278;28;20036;-68
2021/10/19 13:15:41;;;;;;;15.35;8.15;;;;;;;;;;5073818;28;20025;-67
2021/10/19 13:18:08;;;;;;;15.40;8.35;;;;;;;;;;5071634;28;20021;-70
2021/10/19 13:20:34;;;;;;;15.55;8.38;;;;;;;;;;5073504;28;20063;-66
2021/10/19 13:23:00;;;;;;;15.63;8.32;;;;;;;;;;5068414;28;20039;-66
2021/10/19 13:25:26;;;;;;;14.75;9.50;;;;;;;;;;5073230;28;20036;-69
2021/10/19 13:27:52;;;;;;;24.52;9.68;;;;;;;;;;5073185;28;20124;-70
2021/10/19 13:30:20;;;;;;;15.77;9.25;;;;;;;;;;5073463;28;20035;-67
2021/10/19 13:32:48;;;;;;;17.13;8.90;;;;;;;;;;5073314;28;20017;-64
2021/10/19 13:35:15;;;;;;;20.58;10.35;;;;;;;;;;5073313;28;20031;-69
2021/10/19 13:37:41;;;;;;;18.92;10.57;;;;;;;;;;5071972;28;20017;-69
2021/10/19 13:40:07;;;;;;;17.85;10.18;;;;;;;;;;5072884;28;20024;-71
2021/10/19 13:42:33;;;;;;;18.95;10.68;;;;;;;;;;5073067;28;20388;-71
2021/10/19 13:44:59;;;;;;;23.30;11.43;;;;;;;;;;5073413;28;20359;-70
2021/10/19 13:47:25;;;;;;;27.52;14.38;;;;;;;;;;5073636;28;20020;-68
2021/10/19 13:49:53;;;;;;;33.50;15.13;;;;;;;;;;5073269;28;20024;-70
2021/10/19 13:52:20;;;;;;;32.78;15.15;;;;;;;;;;5072942;28;20052;-66
2021/10/19 13:54:45;;;;;;;25.40;15.23;;;;;;;;;;5072633;28;20020;-67
2021/10/19 13:57:12;;;;;;;32.28;16.02;;;;;;;;;;5072657;28;20029;-68
2021/10/19 13:59:38;;;;;;;31.60;16.42;;;;;;;;;;5072717;28;20060;-70
2021/10/19 14:02:04;;;;;;;27.17;15.95;;;;;;;;;;5072556;28;20044;-69
2021/10/19 14:04:31;;;;;;;34.58;16.40;;;;;;;;;;5071120;28;20043;-70
2021/10/19 14:06:58;;;;;;;33.50;16.60;;;;;;;;;;5072925;28;20127;-69
2021/10/19 14:09:25;;;;;;;29.13;16.67;;;;;;;;;;5072754;28;20032;-68
2021/10/19 14:11:52;;;;;;;30.58;16.33;;;;;;;;;;5072413;28;20017;-69
2021/10/19 14:14:18;;;;;;;31.33;16.45;;;;;;;;;;5072717;28;20028;-69
2021/10/19 14:16:44;;;;;;;27.65;16.83;;;;;;;;;;5072332;28;20028;-70
2021/10/19 14:19:11;;;;;;;28.48;17.50;;;;;;;;;;5071441;28;20039;-70
2021/10/19 14:21:38;;;;;;;26.90;17.10;;;;;;;;;;5054475;28;20077;-67
2021/10/19 14:24:05;;;;;;;28.15;17.45;;;;;;;;;;5072027;28;20487;-65
2021/10/19 14:26:31;;;;;;;24.92;17.40;;;;;;;;;;5071610;28;20032;-66
2021/10/19 14:28:57;;;;;;;28.33;17.70;;;;;;;;;;5071669;28;20530;-69
2021/10/19 14:31:23;;;;;;;35.13;17.80;;;;;;;;;;5071930;28;20379;-68
2021/10/19 14:33:49;;;;;;;26.95;18.17;;;;;;;;;;5071624;28;20127;-66